Terminal Aerodrome Forecast
Issued by NWS

Home | Current Version | Previous Version | Text Only | Print | Product List | Glossary On
Versions: 1 2 3 4 5 6 7 8 9 10 11 12
652
FTUS45 KABQ 261122
TAFFMN
TAF
KFMN 261122Z 2612/2712 08005KT P6SM BKN120
     FM261900 28005KT P6SM SCT090 SCT120
     FM262300 05010KT P6SM VCSH BKN090
     FM270400 09010KT P6SM BKN130=

USA.gov is the U.S. government's official web portal to all federal, state and local government web resources and services.